Time;durP1;ratioP1;P1;durP2;ratioP2;P2;SDS_P1;SDS_P2;PMS_P1;PMS_P2;Temp;Humidity;BMP_temperature;BMP_pressure;BME280_temperature;BME280_humidity;BME280_pressure;Samples;Min_cycle;Max_cycle;Signal;HPM_P1;HPM_P2
2021/09/25 00:00:33;;;;;;;10.80;7.45;;;;;;;13.31;74.21;96479.34;5090658;28;20052;-72
2021/09/25 00:03:03;;;;;;;13.18;7.38;;;;;;;13.31;74.44;96478.50;5090838;28;20048;-72
2021/09/25 00:05:32;;;;;;;10.45;7.03;;;;;;;13.31;74.60;96473.03;5089670;28;20040;-72
2021/09/25 00:07:59;;;;;;;8.70;6.93;;;;;;;13.34;74.61;96474.31;5091066;28;20044;-72
2021/09/25 00:10:26;;;;;;;10.18;6.82;;;;;;;13.38;74.41;96475.25;5089812;28;20071;-72
2021/09/25 00:12:53;;;;;;;10.98;7.18;;;;;;;13.37;74.75;96470.94;5090825;28;20619;-72
2021/09/25 00:15:21;;;;;;;10.68;7.00;;;;;;;13.36;74.70;96472.03;5089710;28;20044;-72
2021/09/25 00:17:48;;;;;;;11.15;7.45;;;;;;;13.32;74.87;96472.72;5090853;28;20054;-72
2021/09/25 00:20:17;;;;;;;9.45;6.68;;;;;;;13.28;74.79;96471.78;5089228;28;20067;-72
2021/09/25 00:22:44;;;;;;;9.70;7.28;;;;;;;13.27;74.86;96474.84;5090019;28;20510;-72
2021/09/25 00:25:11;;;;;;;9.43;6.55;;;;;;;13.25;74.52;96477.91;5089937;28;20071;-74
2021/09/25 00:27:38;;;;;;;10.45;6.95;;;;;;;13.23;74.50;96477.44;5089588;28;20415;-73
2021/09/25 00:30:09;;;;;;;11.10;7.18;;;;;;;13.21;74.70;96474.25;5090037;28;20043;-73
2021/09/25 00:32:35;;;;;;;9.55;6.63;;;;;;;13.20;74.96;96469.06;5089651;28;20060;-71
2021/09/25 00:35:02;;;;;;;9.68;7.45;;;;;;;13.19;75.02;96471.00;5090135;28;20048;-72
2021/09/25 00:37:30;;;;;;;12.15;7.40;;;;;;;13.20;75.05;96466.34;5089557;28;20044;-72
2021/09/25 00:39:57;;;;;;;8.90;6.90;;;;;;;13.19;74.73;96467.47;5090632;28;20044;-72
2021/09/25 00:42:23;;;;;;;11.05;7.00;;;;;;;13.16;74.58;96466.22;5089322;28;20055;-73
2021/09/25 00:44:50;;;;;;;10.48;7.22;;;;;;;13.15;74.10;96464.59;5089977;28;20047;-72
2021/09/25 00:47:16;;;;;;;8.65;6.57;;;;;;;13.09;74.25;96460.44;5088286;28;20052;-72
2021/09/25 00:49:43;;;;;;;9.65;6.47;;;;;;;13.05;74.33;96470.47;5088992;28;20048;-72
2021/09/25 00:52:09;;;;;;;9.60;7.00;;;;;;;13.03;74.33;96472.72;5089469;28;20048;-72
2021/09/25 00:54:37;;;;;;;10.68;7.03;;;;;;;12.99;74.06;96466.28;5089219;28;20052;-72
2021/09/25 00:57:04;;;;;;;8.32;6.15;;;;;;;12.96;74.36;96466.97;5089938;28;20057;-74
2021/09/25 00:59:31;;;;;;;11.23;7.43;;;;;;;12.95;74.53;96468.91;5088887;28;20048;-72
2021/09/25 01:01:58;;;;;;;11.13;7.53;;;;;;;12.98;74.41;96464.69;5089886;28;20052;-72
2021/09/25 01:04:24;;;;;;;11.90;6.80;;;;;;;13.01;74.16;96469.53;5088853;28;20044;-72
2021/09/25 01:06:51;;;;;;;9.15;6.78;;;;;;;12.95;74.30;96465.38;5089348;28;20059;-72
2021/09/25 01:09:17;;;;;;;12.13;7.32;;;;;;;12.94;74.74;96469.22;5088999;28;20501;-72
2021/09/25 01:11:45;;;;;;;20.30;8.63;;;;;;;12.90;75.08;96468.31;5088853;28;20422;-72
2021/09/25 01:14:12;;;;;;;29.30;8.27;;;;;;;12.88;75.30;96474.06;5089180;28;20056;-72
2021/09/25 01:16:38;;;;;;;10.30;7.50;;;;;;;12.87;75.11;96474.41;5088684;28;20063;-72
2021/09/25 01:19:05;;;;;;;8.52;6.28;;;;;;;12.88;74.97;96465.09;5088724;28;20047;-72
2021/09/25 01:21:33;;;;;;;9.13;6.88;;;;;;;12.86;75.21;96459.94;5088807;28;20056;-72
2021/09/25 01:23:59;;;;;;;9.77;6.63;;;;;;;12.88;75.37;96465.09;5089631;28;20048;-72
2021/09/25 01:26:26;;;;;;;8.43;6.35;;;;;;;12.85;75.29;96460.28;5088373;28;20521;-72
2021/09/25 01:28:53;;;;;;;9.32;7.00;;;;;;;12.87;75.11;96466.22;5089335;28;20059;-72
2021/09/25 01:31:21;;;;;;;10.75;7.13;;;;;;;12.84;75.25;96459.47;5088159;28;20615;-72
2021/09/25 01:33:50;;;;;;;11.38;7.57;;;;;;;12.85;75.37;96460.28;5088843;28;20074;-72
2021/09/25 01:36:18;;;;;;;9.07;6.55;;;;;;;12.81;75.62;96460.13;5088800;28;20055;-72
2021/09/25 01:38:46;;;;;;;10.60;6.60;;;;;;;12.80;75.56;96467.53;5088839;28;20063;-72
2021/09/25 01:41:14;;;;;;;9.73;6.47;;;;;;;12.80;75.76;96462.06;5088729;28;20071;-72
2021/09/25 01:43:40;;;;;;;10.02;6.90;;;;;;;12.81;75.53;96462.88;5088242;28;20052;-72
2021/09/25 01:46:07;;;;;;;10.20;6.85;;;;;;;12.83;75.28;96457.06;5088294;28;20055;-73
2021/09/25 01:48:33;;;;;;;11.10;7.20;;;;;;;12.80;75.50;96470.28;5084733;28;20048;-72
2021/09/25 01:51:00;;;;;;;24.77;9.85;;;;;;;12.83;75.25;96457.06;5089314;28;20048;-72
2021/09/25 01:53:26;;;;;;;9.77;6.95;;;;;;;12.83;75.15;96457.06;5084333;28;20404;-72
2021/09/25 01:55:54;;;;;;;11.05;7.50;;;;;;;12.80;74.67;96464.81;5088252;28;20414;-72
2021/09/25 01:58:21;;;;;;;10.57;6.22;;;;;;;12.79;75.29;96465.16;5087666;28;20101;-72
2021/09/25 02:00:47;;;;;;;8.15;6.13;;;;;;;12.71;74.64;96461.31;5088200;28;20044;-72
2021/09/25 02:03:14;;;;;;;9.93;6.78;;;;;;;12.68;75.26;96461.94;5088356;28;20040;-72
2021/09/25 02:05:40;;;;;;;16.30;8.45;;;;;;;12.66;75.53;96456.03;5087953;28;20052;-73
2021/09/25 02:08:07;;;;;;;9.80;6.35;;;;;;;12.63;75.74;96459.41;5088389;28;20048;-72
2021/09/25 02:10:33;;;;;;;11.60;6.97;;;;;;;12.61;75.79;96466.34;5087872;28;20052;-73
2021/09/25 02:13:01;;;;;;;11.82;7.47;;;;;;;12.59;76.13;96463.94;5088644;28;20410;-74
2021/09/25 02:15:29;;;;;;;12.48;7.47;;;;;;;12.56;76.41;96459.13;5087598;28;20044;-74
2021/09/25 02:17:56;;;;;;;10.05;7.40;;;;;;;12.55;76.06;96457.53;5087997;28;20051;-74
2021/09/25 02:20:22;;;;;;;10.55;6.78;;;;;;;12.55;76.24;96465.72;5087457;28;20051;-74
2021/09/25 02:22:49;;;;;;;14.73;7.80;;;;;;;12.54;76.25;96459.47;5087470;28;20048;-73
2021/09/25 02:25:15;;;;;;;9.57;6.35;;;;;;;12.52;76.09;96463.63;5087363;28;20044;-73
2021/09/25 02:27:42;;;;;;;8.90;6.45;;;;;;;12.50;76.23;96460.44;5087578;28;20052;-74
2021/09/25 02:30:13;;;;;;;10.00;7.03;;;;;;;12.48;76.01;96462.72;5088308;28;20048;-73
2021/09/25 02:32:39;;;;;;;10.68;7.13;;;;;;;12.45;76.55;96457.88;5088517;28;20426;-74
2021/09/25 02:35:07;;;;;;;10.30;7.32;;;;;;;12.46;76.43;96470.41;5087984;28;20054;-73
2021/09/25 02:37:34;;;;;;;12.20;6.53;;;;;;;12.45;76.28;96475.06;5087323;28;20048;-73
2021/09/25 02:40:00;;;;;;;8.82;6.28;;;;;;;12.41;76.61;96462.41;5087575;28;20059;-74
2021/09/25 02:42:27;;;;;;;9.02;6.47;;;;;;;12.43;76.50;96465.63;5086628;28;20411;-73
2021/09/25 02:44:53;;;;;;;9.95;6.43;;;;;;;12.46;75.48;96467.69;5087513;28;20075;-73
2021/09/25 02:47:21;;;;;;;9.25;6.22;;;;;;;12.43;75.34;96471.09;5087640;28;20075;-74
2021/09/25 02:49:48;;;;;;;10.13;6.82;;;;;;;12.43;74.92;96468.34;5086652;28;20052;-74
2021/09/25 02:52:14;;;;;;;9.77;7.03;;;;;;;12.43;75.18;96469.16;5087257;28;20051;-73
2021/09/25 02:54:42;;;;;;;9.75;6.82;;;;;;;12.45;74.85;96466.09;5086667;28;20047;-74
2021/09/25 02:57:08;;;;;;;11.23;6.90;;;;;;;12.43;75.01;96466.41;5087765;28;20048;-73
2021/09/25 02:59:35;;;;;;;11.20;6.45;;;;;;;12.41;74.90;96473.31;5086971;28;20052;-74
2021/09/25 03:02:01;;;;;;;8.48;6.75;;;;;;;12.38;74.94;96476.72;5087432;28;20043;-72
2021/09/25 03:04:29;;;;;;;10.02;5.90;;;;;;;12.33;75.26;96471.44;5087274;28;20048;-73
2021/09/25 03:06:56;;;;;;;12.70;5.82;;;;;;;12.26;75.30;96469.97;5087449;28;20043;-73
2021/09/25 03:09:23;;;;;;;8.88;7.05;;;;;;;12.19;76.04;96464.22;5086707;28;20068;-74
2021/09/25 03:11:49;;;;;;;9.77;6.57;;;;;;;12.17;76.43;96466.50;5090101;28;20047;-73
2021/09/25 03:14:16;;;;;;;9.43;6.10;;;;;;;12.16;76.47;96462.16;5091536;28;20597;-73
2021/09/25 03:16:43;;;;;;;10.10;6.88;;;;;;;12.13;76.66;96460.09;5091069;28;20055;-73
2021/09/25 03:19:09;;;;;;;11.80;6.55;;;;;;;12.11;76.45;96478.72;5091864;28;20051;-74
2021/09/25 03:21:37;;;;;;;10.02;6.65;;;;;;;12.06;76.57;96473.44;5090339;28;20047;-74
2021/09/25 03:24:04;;;;;;;10.30;6.75;;;;;;;12.07;76.03;96477.75;5091147;28;20526;-73
2021/09/25 03:26:31;;;;;;;10.75;6.80;;;;;;;12.11;75.78;96470.53;5090665;28;20064;-73
2021/09/25 03:28:57;;;;;;;9.07;6.97;;;;;;;12.12;75.21;96471.34;5091618;28;20059;-74
2021/09/25 03:31:24;;;;;;;7.38;5.50;;;;;;;12.09;75.24;96477.44;5090394;28;20484;-74
2021/09/25 03:33:50;;;;;;;10.82;6.47;;;;;;;12.07;75.36;96477.75;5091298;28;20048;-74
2021/09/25 03:36:16;;;;;;;10.95;6.47;;;;;;;12.00;75.69;96475.50;5090947;28;20490;-73
2021/09/25 03:38:44;;;;;;;9.13;6.43;;;;;;;11.95;76.09;96477.59;5090796;28;20056;-73
2021/09/25 03:41:11;;;;;;;8.32;6.63;;;;;;;11.91;76.31;96466.56;5090822;28;20071;-74
2021/09/25 03:43:37;;;;;;;9.93;6.60;;;;;;;11.93;76.04;96469.75;5090886;28;20050;-74
2021/09/25 03:46:04;;;;;;;7.85;5.65;;;;;;;11.90;76.37;96469.59;5091363;28;20056;-73
2021/09/25 03:48:30;;;;;;;8.68;6.22;;;;;;;11.85;76.54;96472.47;5090323;28;20047;-73
2021/09/25 03:50:58;;;;;;;9.77;6.38;;;;;;;11.82;76.61;96459.50;5091183;28;20048;-74
2021/09/25 03:53:24;;;;;;;9.00;6.18;;;;;;;11.79;76.29;96457.38;5089817;28;20509;-73
2021/09/25 03:55:52;;;;;;;10.35;7.45;;;;;;;11.75;76.29;96455.31;5090492;28;20044;-73
2021/09/25 03:58:19;;;;;;;9.88;6.53;;;;;;;11.72;76.22;96458.66;5090360;28;20048;-74
2021/09/25 04:00:45;;;;;;;9.13;6.65;;;;;;;11.73;76.19;96459.47;5090633;28;20059;-74
2021/09/25 04:03:13;;;;;;;9.50;6.15;;;;;;;11.72;76.36;96458.66;5090571;28;20048;-73
2021/09/25 04:05:40;;;;;;;11.82;6.65;;;;;;;11.72;76.13;96457.88;5089609;28;20059;-73
2021/09/25 04:08:06;;;;;;;10.00;6.20;;;;;;;11.67;76.38;96461.56;5090818;28;20530;-73
2021/09/25 04:10:33;;;;;;;8.02;5.93;;;;;;;11.59;76.12;96470.56;5089869;28;20052;-74
2021/09/25 04:13:01;;;;;;;11.32;6.63;;;;;;;11.55;76.50;96468.81;5091243;28;20067;-73
2021/09/25 04:15:28;;;;;;;9.45;6.32;;;;;;;11.61;77.08;96467.50;5089379;28;20066;-73
2021/09/25 04:17:54;;;;;;;8.60;6.35;;;;;;;11.64;76.54;96456.75;5090571;28;20048;-73
2021/09/25 04:20:21;;;;;;;9.90;6.35;;;;;;;11.65;76.11;96455.63;5089388;28;20055;-74
2021/09/25 04:22:47;;;;;;;11.38;6.60;;;;;;;11.60;76.45;96455.81;5089946;28;20056;-74
2021/09/25 04:25:14;;;;;;;8.43;5.97;;;;;;;11.56;76.85;96465.75;5090155;28;20055;-74
2021/09/25 04:27:40;;;;;;;7.72;5.72;;;;;;;11.52;77.13;96464.78;5089620;28;20415;-73
2021/09/25 04:30:10;;;;;;;8.77;6.03;;;;;;;11.51;77.08;96457.72;5089793;28;20055;-74
2021/09/25 04:32:36;;;;;;;9.18;6.20;;;;;;;11.49;77.26;96457.25;5089369;28;20052;-74
2021/09/25 04:35:03;;;;;;;8.90;6.32;;;;;;;11.47;77.54;96462.22;5089839;28;20048;-74
2021/09/25 04:37:29;;;;;;;8.55;6.28;;;;;;;11.52;77.43;96461.25;5089393;28;20048;-73
2021/09/25 04:39:56;;;;;;;9.40;5.93;;;;;;;11.57;77.06;96456.44;5090340;28;20052;-73
2021/09/25 04:42:22;;;;;;;9.35;5.75;;;;;;;11.61;76.68;96456.59;5089116;28;20482;-73
2021/09/25 04:44:49;;;;;;;9.68;6.43;;;;;;;11.64;76.54;96454.03;5089777;28;20128;-73
2021/09/25 04:47:17;;;;;;;10.35;7.07;;;;;;;11.60;76.65;96461.25;5089116;28;20519;-74
2021/09/25 04:49:43;;;;;;;9.82;6.18;;;;;;;11.54;76.76;96459.00;5089367;28;20048;-74
2021/09/25 04:52:09;;;;;;;10.73;6.25;;;;;;;11.50;77.06;96464.31;5089375;28;20047;-74
2021/09/25 04:54:36;;;;;;;9.02;5.90;;;;;;;11.46;77.15;96460.59;5088835;28;20048;-74
2021/09/25 04:57:03;;;;;;;9.70;6.50;;;;;;;11.48;76.61;96463.81;5090114;28;20495;-73
2021/09/25 04:59:29;;;;;;;7.63;5.53;;;;;;;11.47;76.68;96470.38;5089019;28;20077;-73
2021/09/25 05:01:56;;;;;;;8.55;6.22;;;;;;;11.51;76.45;96471.34;5089874;28;20048;-73
2021/09/25 05:04:24;;;;;;;7.80;5.72;;;;;;;11.50;76.95;96467.03;5088985;28;20044;-74
2021/09/25 05:06:50;;;;;;;8.70;6.28;;;;;;;11.52;76.27;96464.78;5089609;28;20434;-73
2021/09/25 05:09:18;;;;;;;7.40;5.50;;;;;;;11.51;76.33;96474.09;5088490;28;20048;-74
2021/09/25 05:11:45;;;;;;;9.55;5.90;;;;;;;11.42;76.03;96481.44;5069570;28;20457;-74
2021/09/25 05:14:11;;;;;;;9.10;6.13;;;;;;;11.34;76.22;96485.00;5069092;28;20049;-74
2021/09/25 05:16:38;;;;;;;14.02;7.20;;;;;;;11.30;76.60;96489.47;5068044;28;20048;-73
2021/09/25 05:19:04;;;;;;;9.82;6.25;;;;;;;11.33;76.18;96480.63;5068878;28;20044;-73
2021/09/25 05:21:32;;;;;;;7.30;5.38;;;;;;;11.32;76.59;96493.47;5068330;28;20064;-73
2021/09/25 05:23:58;;;;;;;8.10;5.18;;;;;;;11.27;76.63;96484.66;5079972;28;20055;-73
2021/09/25 05:26:25;;;;;;;8.07;5.75;;;;;;;11.24;76.80;96486.91;5088222;28;20051;-73
2021/09/25 05:28:51;;;;;;;7.43;5.05;;;;;;;11.20;76.70;96485.94;5089376;28;20052;-73
2021/09/25 05:31:18;;;;;;;7.70;5.57;;;;;;;11.14;76.96;96487.19;5088468;28;20044;-73
2021/09/25 05:33:44;;;;;;;8.70;5.68;;;;;;;11.17;77.24;96485.75;5088321;28;20063;-74
2021/09/25 05:36:11;;;;;;;9.40;6.15;;;;;;;11.18;77.79;96492.84;5088374;28;20059;-73
2021/09/25 05:38:39;;;;;;;8.88;6.00;;;;;;;11.21;77.59;96492.16;5088247;28;20051;-73
2021/09/25 05:41:05;;;;;;;8.13;6.00;;;;;;;11.25;77.70;96498.59;5088725;28;20063;-73
2021/09/25 05:43:32;;;;;;;10.43;6.20;;;;;;;11.29;78.01;96504.22;5087839;28;20700;-73
2021/09/25 05:45:58;;;;;;;9.18;6.15;;;;;;;11.35;78.19;96497.50;5088954;28;20048;-73
2021/09/25 05:48:25;;;;;;;7.75;6.03;;;;;;;11.42;78.47;96503.25;5087705;28;20039;-73
2021/09/25 05:50:51;;;;;;;10.25;5.80;;;;;;;11.47;78.99;96501.19;5089035;28;20142;-73
2021/09/25 05:53:18;;;;;;;10.10;6.30;;;;;;;11.54;78.85;96500.72;5086715;28;20036;-73
2021/09/25 05:55:46;;;;;;;7.93;5.75;;;;;;;11.61;78.75;96498.31;5088389;28;20052;-73
2021/09/25 05:58:12;;;;;;;8.07;5.68;;;;;;;11.69;77.58;96497.53;5086972;28;20040;-73
2021/09/25 06:00:39;;;;;;;6.95;5.30;;;;;;;11.73;77.22;96501.19;5087815;28;20052;-73
2021/09/25 06:03:05;;;;;;;8.70;5.55;;;;;;;11.76;77.84;96497.81;5088145;28;20051;-72
2021/09/25 06:05:32;;;;;;;7.43;5.35;;;;;;;11.80;78.46;96502.63;5087632;28;20059;-72
2021/09/25 06:07:58;;;;;;;7.72;5.50;;;;;;;11.84;78.85;96495.44;5088074;28;20056;-73
2021/09/25 06:10:25;;;;;;;9.68;5.30;;;;;;;11.93;78.76;96501.69;5086847;28;20047;-73
2021/09/25 06:12:53;;;;;;;7.47;5.40;;;;;;;11.96;78.59;96496.41;5088264;28;20078;-73
2021/09/25 06:15:20;;;;;;;7.75;5.57;;;;;;;12.02;77.72;96497.84;5086514;28;20058;-73
2021/09/25 06:17:46;;;;;;;6.72;5.22;;;;;;;12.05;77.54;96488.19;5087235;28;20055;-73
2021/09/25 06:20:13;;;;;;;7.20;5.10;;;;;;;12.10;77.55;96485.28;5086725;28;20060;-73
2021/09/25 06:22:40;;;;;;;7.57;5.40;;;;;;;12.17;77.64;96496.53;5085004;28;20058;-73
2021/09/25 06:25:08;;;;;;;5.88;4.60;;;;;;;12.25;77.25;96503.88;5086060;28;20057;-73
2021/09/25 06:27:34;;;;;;;7.97;5.20;;;;;;;12.37;77.41;96505.13;5086878;28;20056;-73
2021/09/25 06:30:03;;;;;;;6.80;5.18;;;;;;;12.48;76.89;96514.59;5085679;28;20044;-72
2021/09/25 06:32:29;;;;;;;7.50;5.20;;;;;;;12.54;77.12;96511.34;5086376;28;20047;-73
2021/09/25 06:34:56;;;;;;;7.30;5.22;;;;;;;12.62;76.83;96508.91;5087425;28;20048;-73
2021/09/25 06:37:22;;;;;;;7.30;5.03;;;;;;;12.70;76.25;96505.34;5085600;28;20047;-74
2021/09/25 06:39:49;;;;;;;10.95;5.03;;;;;;;12.75;76.11;96500.50;5087098;28;20047;-73
2021/09/25 06:42:15;;;;;;;7.65;4.85;;;;;;;12.83;75.47;96501.59;5085318;28;20048;-73
2021/09/25 06:44:42;;;;;;;8.60;5.22;;;;;;;12.89;75.67;96511.19;5086227;28;20086;-74
2021/09/25 06:47:10;;;;;;;10.10;4.88;;;;;;;12.99;75.77;96507.31;5088259;28;20035;-72
2021/09/25 06:49:36;;;;;;;6.47;4.65;;;;;;;13.14;76.31;96506.75;5089553;28;20036;-73
2021/09/25 06:52:04;;;;;;;6.75;4.90;;;;;;;13.32;77.01;96502.81;5089236;28;20486;-72
2021/09/25 06:54:32;;;;;;;6.70;4.95;;;;;;;13.43;76.07;96503.22;5089167;28;20067;-73
2021/09/25 06:56:58;;;;;;;5.60;4.35;;;;;;;13.65;74.91;96504.81;5091054;28;20442;-73
2021/09/25 06:59:25;;;;;;;7.95;4.68;;;;;;;14.66;73.12;96499.03;5089514;28;20048;-73
2021/09/25 07:01:51;;;;;;;6.68;4.63;;;;;;;15.62;69.20;96498.53;5089694;28;20048;-74
2021/09/25 07:04:19;;;;;;;7.65;4.03;;;;;;;15.79;67.96;96501.03;5088681;28;20044;-73
2021/09/25 07:06:46;;;;;;;7.10;3.90;;;;;;;15.75;67.57;96505.59;5090601;28;20052;-73
2021/09/25 07:09:12;;;;;;;5.35;4.03;;;;;;;15.73;68.26;96501.63;5089335;28;20483;-73
2021/09/25 07:11:39;;;;;;;5.85;4.00;;;;;;;16.27;66.61;96510.22;5090571;28;20058;-73
2021/09/25 07:14:05;;;;;;;5.45;3.92;;;;;;;17.25;64.20;96509.59;5089719;28;20040;-73
2021/09/25 07:16:32;;;;;;;4.50;3.38;;;;;;;18.07;59.17;96521.66;5089905;28;20048;-74
2021/09/25 07:18:59;;;;;;;5.60;3.88;;;;;;;18.88;57.85;96527.97;5090835;28;20055;-74
2021/09/25 07:21:26;;;;;;;5.20;3.83;;;;;;;19.61;55.25;96530.72;5088683;28;20044;-73
2021/09/25 07:23:53;;;;;;;6.85;3.75;;;;;;;19.96;53.42;96528.47;5090944;28;20495;-72
2021/09/25 07:26:19;;;;;;;5.25;3.33;;;;;;;20.65;52.06;96521.81;5089048;28;20503;-72
2021/09/25 07:28:46;;;;;;;5.03;3.53;;;;;;;21.11;51.64;96517.50;5089689;28;20048;-72
2021/09/25 07:31:12;;;;;;;5.72;3.60;;;;;;;21.43;48.90;96522.53;5088907;28;20044;-72
2021/09/25 07:33:39;;;;;;;6.15;3.80;;;;;;;21.73;48.04;96513.25;5090029;28;20048;-72
2021/09/25 07:36:06;;;;;;;5.28;3.55;;;;;;;21.96;47.65;96522.06;5089018;28;20044;-73
2021/09/25 07:38:35;;;;;;;4.30;3.15;;;;;;;22.34;47.63;96525.44;5089934;28;20055;-73
2021/09/25 07:41:04;;;;;;;4.45;3.40;;;;;;;22.76;45.82;96521.19;5089970;28;20439;-72
2021/09/25 07:43:31;;;;;;;8.38;3.45;;;;;;;23.09;45.43;96515.34;5089245;28;20115;-72
2021/09/25 07:45:58;;;;;;;4.72;2.97;;;;;;;23.48;45.17;96525.66;5090962;28;20059;-72
2021/09/25 07:48:28;;;;;;;4.50;3.25;;;;;;;23.58;45.53;96519.28;5089672;28;20117;-77
2021/09/25 07:50:55;;;;;;;5.10;3.10;;;;;;;23.24;44.81;96512.56;5090697;28;20051;-73
2021/09/25 07:53:21;;;;;;;4.53;3.05;;;;;;;22.74;45.91;96506.94;5089538;28;20052;-72
2021/09/25 07:55:49;;;;;;;4.00;3.42;;;;;;;23.05;46.80;96520.09;5090179;28;20044;-75
2021/09/25 07:58:16;;;;;;;5.53;3.47;;;;;;;23.01;46.06;96521.28;5092866;28;20044;-76
2021/09/25 08:00:43;;;;;;;5.28;3.70;;;;;;;23.28;45.43;96528.03;5093829;28;20402;-75
2021/09/25 08:03:09;;;;;;;5.35;3.33;;;;;;;23.59;46.01;96520.88;5093612;28;20616;-76
2021/09/25 08:05:36;;;;;;;5.30;3.47;;;;;;;24.01;45.45;96518.44;5093118;28;20501;-75
2021/09/25 08:08:03;;;;;;;6.35;3.70;;;;;;;24.26;42.92;96523.91;5093967;28;20122;-75
2021/09/25 08:10:29;;;;;;;4.22;3.17;;;;;;;23.97;42.97;96518.47;5093120;28;20048;-76
2021/09/25 08:12:57;;;;;;;3.78;3.28;;;;;;;23.71;44.46;96518.91;5094315;28;20079;-76
2021/09/25 08:15:23;;;;;;;4.80;4.30;;;;;;;23.08;45.02;96524.88;5092550;28;20040;-76
2021/09/25 08:17:50;;;;;;;7.03;4.25;;;;;;;22.45;47.82;96529.06;5093707;28;20051;-76
2021/09/25 08:20:18;;;;;;;6.32;4.22;;;;;;;22.19;47.33;96534.91;5092542;28;20513;-76
2021/09/25 08:22:46;;;;;;;7.63;4.80;;;;;;;21.66;49.67;96533.38;5093559;28;20085;-76
2021/09/25 08:25:14;;;;;;;6.32;4.28;;;;;;;21.64;50.48;96530.19;5092933;28;20053;-75
2021/09/25 08:27:41;;;;;;;7.30;4.40;;;;;;;21.43;51.66;96528.06;5092859;28;20491;-75
2021/09/25 08:30:12;;;;;;;7.55;4.90;;;;;;;20.92;51.41;96528.00;5092673;28;20526;-76
2021/09/25 08:32:38;;;;;;;6.05;4.80;;;;;;;20.74;52.45;96530.59;5090019;28;20506;-75
2021/09/25 08:35:07;;;;;;;6.00;4.10;;;;;;;20.61;53.07;96532.81;5092098;28;20062;-76
2021/09/25 08:37:34;;;;;;;6.82;4.03;;;;;;;20.66;52.36;96534.44;5092391;28;20055;-77
2021/09/25 08:40:01;;;;;;;6.63;4.90;;;;;;;20.97;51.51;96533.19;5093481;28;20381;-76
2021/09/25 08:42:28;;;;;;;5.75;4.63;;;;;;;20.98;50.55;96537.53;5092790;28;20064;-76
2021/09/25 08:44:55;;;;;;;8.02;4.40;;;;;;;21.54;50.41;96528.94;5093003;28;20044;-75
2021/09/25 08:47:22;;;;;;;8.45;4.30;;;;;;;22.18;51.19;96530.53;5092630;28;20117;-75
2021/09/25 08:49:50;;;;;;;5.63;4.43;;;;;;;22.48;46.29;96530.25;5092633;28;20044;-76
2021/09/25 08:52:16;;;;;;;7.57;3.72;;;;;;;22.61;47.50;96540.59;5092799;28;20044;-75
2021/09/25 08:54:43;;;;;;;5.90;4.10;;;;;;;22.41;46.82;96533.81;5092933;28;20040;-76
2021/09/25 08:57:10;;;;;;;5.60;4.28;;;;;;;22.28;48.57;96532.53;5092893;28;20048;-77
2021/09/25 08:59:36;;;;;;;9.10;4.53;;;;;;;22.20;47.30;96536.50;5092177;28;20491;-76
2021/09/25 09:02:11;;;;;;;5.55;4.50;;;;;;;22.00;49.87;96535.97;5092809;28;20044;-75
2021/09/25 09:04:44;;;;;;;6.88;4.70;;;;;;;21.78;49.88;96526.72;5092249;28;20040;-76
2021/09/25 09:07:15;;;;;;;8.57;4.50;;;;;;;21.50;50.36;96539.19;5092226;28;20503;-75
2021/09/25 09:09:42;;;;;;;5.60;4.00;;;;;;;21.37;51.82;96537.91;5091342;28;20047;-75
2021/09/25 09:12:09;;;;;;;6.00;4.70;;;;;;;21.18;50.30;96538.13;5091583;28;20044;-76
2021/09/25 09:14:42;;;;;;;8.65;4.75;;;;;;;21.06;51.67;96531.69;5092705;28;20406;-76
2021/09/25 09:17:08;;;;;;;;;;;;;;;20.89;52.89;96534.31;5091864;28;20047;-75
2021/09/25 09:19:36;;;;;;;7.57;4.30;;;;;;;20.80;53.48;96534.59;5093100;28;19926;-76
2021/09/25 09:22:06;;;;;;;6.90;4.30;;;;;;;20.85;53.48;96525.97;5091453;28;20105;-75
2021/09/25 09:24:42;;;;;;;5.70;4.53;;;;;;;21.02;53.30;96528.09;5092312;28;20048;-76
2021/09/25 09:27:13;;;;;;;5.53;4.32;;;;;;;21.48;50.01;96536.03;5091664;28;20044;-77
2021/09/25 09:29:40;;;;;;;7.38;4.90;;;;;;;21.78;50.81;96530.28;5092194;28;20059;-76
2021/09/25 09:32:08;;;;;;;5.75;4.38;;;;;;;21.82;50.44;96530.28;5091633;28;20059;-75
2021/09/25 09:34:37;;;;;;;5.88;4.10;;;;;;;22.00;50.83;96522.88;5091892;28;20044;-76
2021/09/25 09:37:14;;;;;;;6.10;4.20;;;;;;;22.08;49.55;96520.94;5092014;28;20086;-76
2021/09/25 09:39:41;;;;;;;5.88;4.28;;;;;;;22.17;49.29;96510.31;5091231;28;20048;-76
2021/09/25 09:42:07;;;;;;;7.68;4.10;;;;;;;22.12;49.84;96511.47;5092008;28;20051;-75
2021/09/25 09:44:34;;;;;;;6.75;4.50;;;;;;;22.13;49.51;96509.50;5091452;28;20502;-76
2021/09/25 09:47:03;;;;;;;9.30;4.47;;;;;;;22.17;49.48;96509.53;5092151;28;20074;-76
2021/09/25 09:49:32;;;;;;;8.85;4.40;;;;;;;22.08;48.07;96516.22;5091446;28;20420;-76
2021/09/25 09:51:59;;;;;;;7.65;4.63;;;;;;;22.10;48.48;96500.00;5091732;28;20458;-77
2021/09/25 09:54:30;;;;;;;6.57;4.30;;;;;;;22.20;50.32;96503.22;5091524;28;20043;-76
2021/09/25 09:56:58;;;;;;;6.25;4.35;;;;;;;22.35;52.05;96507.63;5091375;28;20739;-76
2021/09/25 09:59:25;;;;;;;6.78;4.22;;;;;;;22.53;47.74;96502.13;5091963;28;20044;-76
2021/09/25 10:01:53;;;;;;;5.53;3.90;;;;;;;22.69;48.04;96507.31;5091063;28;20043;-75
2021/09/25 10:04:20;;;;;;;5.28;3.45;;;;;;;22.84;49.27;96509.72;5091788;28;20048;-75
2021/09/25 10:06:47;;;;;;;4.95;3.55;;;;;;;22.96;43.30;96516.09;5091020;28;20048;-75
2021/09/25 10:09:16;;;;;;;5.70;3.85;;;;;;;22.95;44.27;96512.53;5091477;28;20048;-75
2021/09/25 10:11:45;;;;;;;4.55;3.60;;;;;;;22.99;43.78;96507.78;5091494;28;20051;-75
2021/09/25 10:14:16;;;;;;;5.55;4.10;;;;;;;22.87;43.22;96505.38;5091032;28;20127;-74
2021/09/25 10:16:44;;;;;;;5.20;3.65;;;;;;;22.75;44.09;96502.97;5091665;28;20048;-75
2021/09/25 10:19:12;;;;;;;6.75;3.63;;;;;;;22.70;47.41;96503.34;5090203;28;20071;-76
2021/09/25 10:21:39;;;;;;;5.68;3.88;;;;;;;22.69;47.60;96498.97;5091630;28;20052;-74
2021/09/25 10:24:08;;;;;;;6.10;3.53;;;;;;;22.71;48.30;96502.16;5090235;28;20044;-75
2021/09/25 10:26:36;;;;;;;4.80;3.50;;;;;;;22.74;48.92;96504.16;5091473;28;20044;-74
2021/09/25 10:29:06;;;;;;;5.50;3.80;;;;;;;22.50;46.27;96500.94;5089844;28;20395;-74
2021/09/25 10:31:33;;;;;;;7.68;4.00;;;;;;;22.45;46.80;96495.78;5090812;28;20093;-75
2021/09/25 10:34:13;;;;;;;5.85;3.58;;;;;;;22.44;48.07;96496.94;5090895;28;20040;-74
2021/09/25 10:36:43;;;;;;;6.25;4.43;;;;;;;22.45;48.77;96493.00;5089142;28;20036;-75
2021/09/25 10:39:35;;;;;;;4.75;3.60;;;;;;;22.47;48.16;96496.16;5090648;28;20047;-74
2021/09/25 10:42:12;;;;;;;4.60;3.83;;;;;;;22.41;46.71;96497.72;5087148;28;20048;-74
2021/09/25 10:44:48;;;;;;;5.47;3.85;;;;;;;22.28;48.20;96488.16;5091339;28;20048;-75
2021/09/25 10:47:17;;;;;;;4.60;3.35;;;;;;;22.23;47.95;96485.75;5089903;28;20076;-74
2021/09/25 10:49:46;;;;;;;4.95;3.53;;;;;;;22.30;49.60;96485.81;5090846;28;20048;-75
2021/09/25 10:52:15;;;;;;;4.70;3.90;;;;;;;22.30;48.31;96483.03;5090154;28;20411;-75
2021/09/25 10:54:42;;;;;;;4.63;3.33;;;;;;;22.30;49.48;96480.25;5090232;28;20068;-74
2021/09/25 10:57:15;;;;;;;4.38;3.67;;;;;;;22.28;49.06;96488.94;5090404;28;20044;-74
2021/09/25 11:00:14;;;;;;;4.65;3.35;;;;;;;22.33;48.84;96480.25;5090086;28;20063;-75
2021/09/25 11:02:43;;;;;;;6.00;3.50;;;;;;;22.43;49.99;96475.94;5090334;28;20065;-75
2021/09/25 11:05:09;;;;;;;5.55;3.10;;;;;;;22.47;49.58;96471.19;5089761;28;20482;-74
2021/09/25 11:07:37;;;;;;;4.82;3.72;;;;;;;22.57;48.40;96478.75;5090433;28;20051;-75
2021/09/25 11:10:04;;;;;;;4.95;3.60;;;;;;;22.57;50.41;96472.41;5090053;28;20044;-74
2021/09/25 11:12:45;;;;;;;9.65;3.58;;;;;;;22.59;49.13;96459.72;5090635;28;20059;-74
2021/09/25 11:15:30;;;;;;;5.93;3.40;;;;;;;22.65;49.69;96458.13;5090796;28;20052;-74
2021/09/25 11:18:26;;;;;;;5.07;3.50;;;;;;;22.64;48.08;96456.53;5089865;28;20040;-74
2021/09/25 11:21:01;;;;;;;5.85;3.55;;;;;;;22.59;47.80;96459.72;5090135;28;20036;-75
2021/09/25 11:23:42;;;;;;;5.30;3.70;;;;;;;22.57;48.15;96453.75;5090262;28;20051;-75
2021/09/25 11:26:08;;;;;;;5.53;3.60;;;;;;;22.58;46.79;96458.13;5089454;28;20070;-74
2021/09/25 11:28:35;;;;;;;5.03;3.63;;;;;;;22.63;48.15;96459.72;5090797;28;20044;-75
2021/09/25 11:31:07;;;;;;;4.43;3.35;;;;;;;22.82;45.15;96455.78;5089312;28;20055;-73
2021/09/25 11:33:37;;;;;;;4.80;3.03;;;;;;;22.88;46.59;96454.22;5094721;28;20052;-74